createdAt,value
2023-04-18T00:04:15.074Z,99112.56
2023-04-18T00:09:17.329Z,99113.84
2023-04-18T00:14:21.007Z,99108.57
2023-04-18T00:19:23.626Z,99108.11
2023-04-18T00:24:25.796Z,99111.60
2023-04-18T00:29:28.049Z,99112.98
2023-04-18T00:34:29.979Z,99115.17
2023-04-18T00:39:31.767Z,99114.41
2023-04-18T00:44:33.921Z,99117.33
2023-04-18T00:49:35.827Z,99113.91
2023-04-18T00:54:39.015Z,99107.60
2023-04-18T00:59:41.341Z,99104.45
2023-04-18T01:04:44.093Z,99097.02
2023-04-18T01:09:46.342Z,99098.86
2023-04-18T01:14:48.289Z,99101.17
2023-04-18T01:19:51.576Z,99101.10
2023-04-18T01:24:53.672Z,99100.19
2023-04-18T01:29:55.661Z,99100.05
2023-04-18T01:34:57.735Z,99094.58
2023-04-18T01:40:00.134Z,99095.40
2023-04-18T01:45:02.632Z,99089.73
2023-04-18T01:50:05.133Z,99089.45
2023-04-18T01:55:07.637Z,99082.23
2023-04-18T02:00:11.478Z,99082.50
2023-04-18T02:05:19.278Z,99079.20
2023-04-18T02:10:21.272Z,99078.45
2023-04-18T02:15:24.624Z,99080.65
2023-04-18T02:20:28.579Z,99081.02
2023-04-18T02:25:31.126Z,99077.85
2023-04-18T02:30:32.950Z,99075.94
2023-04-18T02:35:38.564Z,99072.29
2023-04-18T02:40:40.649Z,99070.41
2023-04-18T02:45:43.030Z,99073.97
2023-04-18T02:50:45.062Z,99080.29
2023-04-18T02:55:47.588Z,99087.98
2023-04-18T03:00:53.149Z,99088.65
2023-04-18T03:06:15.951Z,99091.52
2023-04-18T03:11:18.175Z,99095.77
2023-04-18T03:16:20.669Z,99101.62
2023-04-18T03:21:24.083Z,99098.00
2023-04-18T03:26:26.911Z,99102.67
2023-04-18T03:31:29.418Z,99095.23
2023-04-18T03:36:31.662Z,99106.52
2023-04-18T03:41:34.118Z,99103.54
2023-04-18T03:46:37.749Z,99099.09
2023-04-18T03:51:48.072Z,99104.16
2023-04-18T03:56:50.582Z,99108.20
2023-04-18T04:01:53.575Z,99113.04
2023-04-18T04:06:56.027Z,99117.54
2023-04-18T04:11:57.877Z,99126.71
2023-04-18T04:17:01.122Z,99132.91
2023-04-18T04:22:04.019Z,99133.44
2023-04-18T04:27:08.192Z,99131.33
2023-04-18T04:32:11.035Z,99143.15
2023-04-18T04:37:19.808Z,99142.11
2023-04-18T04:42:32.373Z,99149.02
2023-04-18T04:47:40.361Z,99155.96
2023-04-18T04:52:42.755Z,99161.90
2023-04-18T04:57:45.659Z,99164.88
2023-04-18T05:03:00.106Z,99175.13
2023-04-18T05:08:03.110Z,99178.67
2023-04-18T05:13:05.513Z,99177.50
2023-04-18T05:18:07.701Z,99180.29
2023-04-18T05:23:10.081Z,99181.64
2023-04-18T05:28:11.980Z,99186.82
2023-04-18T05:33:13.853Z,99193.39
2023-04-18T05:38:16.925Z,99201.11
2023-04-18T05:43:19.787Z,99204.10
2023-04-18T05:48:23.469Z,99204.42
2023-04-18T05:53:25.806Z,99211.70
2023-04-18T05:58:28.929Z,99215.17
2023-04-18T06:03:30.891Z,99213.09
2023-04-18T06:08:33.316Z,99216.88
2023-04-18T06:13:37.385Z,99222.73
2023-04-18T06:18:39.631Z,99228.02
2023-04-18T06:23:41.682Z,99235.98
2023-04-18T06:28:43.825Z,99236.88
2023-04-18T06:33:45.629Z,99242.20
2023-04-18T06:38:47.731Z,99239.37
2023-04-18T06:44:02.086Z,99237.60
2023-04-18T06:49:06.119Z,99242.30
2023-04-18T06:54:08.091Z,99242.70
2023-04-18T06:59:10.352Z,99247.83
2023-04-18T07:04:12.643Z,99243.72
2023-04-18T07:09:14.916Z,99255.23
2023-04-18T07:14:17.008Z,99259.60
2023-04-18T07:19:19.267Z,99264.02
2023-04-18T07:24:23.570Z,99265.02
2023-04-18T07:29:25.632Z,99264.46
2023-04-18T07:34:30.005Z,99267.27
2023-04-18T07:39:35.962Z,99268.41
2023-04-18T07:44:37.964Z,99266.33
2023-04-18T07:49:40.101Z,99269.25
2023-04-18T07:54:41.987Z,99269.95
2023-04-18T07:59:44.054Z,99271.35
2023-04-18T08:04:47.480Z,99276.00
2023-04-18T08:09:49.678Z,99274.64
2023-04-18T08:14:51.554Z,99278.18
2023-04-18T08:19:53.556Z,99284.30
2023-04-18T08:25:04.288Z,99283.05
2023-04-18T08:30:09.850Z,99287.36
2023-04-18T08:35:11.846Z,99289.00
2023-04-18T08:40:14.622Z,99291.09
2023-04-18T08:45:18.691Z,99291.65
2023-04-18T08:50:21.634Z,99290.21
2023-04-18T08:55:23.630Z,99297.44
2023-04-18T09:00:27.289Z,99298.06
2023-04-18T09:05:29.838Z,99303.31
2023-04-18T09:10:33.913Z,99299.85
2023-04-18T09:15:35.864Z,99303.77
2023-04-18T09:20:43.828Z,99302.27
2023-04-18T09:25:48.140Z,99301.73
2023-04-18T09:30:54.389Z,99299.91
2023-04-18T09:35:57.339Z,99296.69
2023-04-18T09:41:11.738Z,99295.38
2023-04-18T09:46:14.650Z,99300.66
2023-04-18T09:51:18.740Z,99297.02
2023-04-18T09:56:32.722Z,99296.04
2023-04-18T10:01:35.880Z,99296.82
2023-04-18T10:06:39.902Z,99298.73
2023-04-18T10:11:42.366Z,99290.08
2023-04-18T10:16:49.958Z,99287.88
2023-04-18T10:21:58.459Z,99278.23
2023-04-18T10:27:00.328Z,99275.42
2023-04-18T10:32:07.195Z,99275.93
2023-04-18T10:37:09.461Z,99270.21
2023-04-18T10:42:11.617Z,99270.20
2023-04-18T10:47:19.824Z,99264.86
2023-04-18T10:52:22.022Z,99266.94
2023-04-18T10:57:24.028Z,99261.96
2023-04-18T11:02:30.158Z,99253.60
2023-04-18T11:07:36.992Z,99252.37
2023-04-18T11:12:40.830Z,99249.70
2023-04-18T11:17:44.207Z,99245.06
2023-04-18T11:22:51.456Z,99246.83
2023-04-18T11:27:55.905Z,99248.64
2023-04-18T11:32:58.043Z,99249.58
2023-04-18T11:38:00.936Z,99244.30
2023-04-18T11:43:05.876Z,99246.97
2023-04-18T11:48:07.765Z,99249.36
2023-04-18T11:53:10.568Z,99246.59
2023-04-18T11:58:12.776Z,99242.03
2023-04-18T12:03:17.089Z,99241.69
2023-04-18T12:08:20.643Z,99239.41
2023-04-18T12:13:27.497Z,99243.85
2023-04-18T12:18:30.021Z,99239.64
2023-04-18T12:23:35.978Z,99234.91
2023-04-18T12:28:38.809Z,99236.23
2023-04-18T12:33:41.234Z,99225.82
2023-04-18T12:38:43.291Z,99224.15
2023-04-18T12:43:45.434Z,99224.06
2023-04-18T12:48:47.519Z,99220.80
2023-04-18T12:53:49.718Z,99216.60
2023-04-18T12:58:51.834Z,99213.91
2023-04-18T13:04:08.325Z,99209.11
2023-04-18T13:09:13.450Z,99210.40
2023-04-18T13:14:16.267Z,99208.00
2023-04-18T13:19:18.090Z,99202.09
2023-04-18T13:24:20.401Z,99202.88
2023-04-18T13:29:22.689Z,99206.11
2023-04-18T13:34:24.775Z,99208.77
2023-04-18T13:39:26.596Z,99209.55
2023-04-18T13:44:29.501Z,99207.53
2023-04-18T13:49:32.678Z,99205.50
2023-04-18T13:54:35.456Z,99205.29
2023-04-18T13:59:42.438Z,99206.73
2023-04-18T14:04:44.931Z,99206.75
2023-04-18T14:09:48.391Z,99203.36
2023-04-18T14:14:50.432Z,99204.98
2023-04-18T14:20:11.696Z,99200.84
2023-04-18T14:25:14.332Z,99203.89
2023-04-18T14:30:16.749Z,99200.80
2023-04-18T14:35:19.042Z,99202.74
2023-04-18T14:40:22.798Z,99201.88
2023-04-18T14:45:25.680Z,99206.60
2023-04-18T14:50:27.810Z,99208.52
2023-04-18T14:55:30.179Z,99206.33
2023-04-18T15:00:34.011Z,99202.36
2023-04-18T15:05:39.175Z,99200.69
2023-04-18T15:10:46.561Z,99200.74
2023-04-18T15:15:56.908Z,99197.77
2023-04-18T15:20:59.723Z,99198.50
2023-04-18T15:26:01.887Z,99200.32
2023-04-18T15:31:06.173Z,99201.81
2023-04-18T15:36:09.213Z,99199.55
2023-04-18T15:41:11.281Z,99206.48
2023-04-18T15:46:14.214Z,99211.54
2023-04-18T15:51:16.098Z,99217.20
2023-04-18T15:56:18.371Z,99216.39
2023-04-18T16:01:20.956Z,99215.70
2023-04-18T16:06:23.503Z,99216.66
2023-04-18T16:11:29.039Z,99220.52
2023-04-18T16:16:31.092Z,99219.92
2023-04-18T16:21:33.108Z,99218.95
2023-04-18T16:26:35.166Z,99218.24
2023-04-18T16:31:37.335Z,99219.88
2023-04-18T16:36:39.801Z,99223.30
2023-04-18T16:41:41.816Z,99226.87
2023-04-18T16:46:44.409Z,99225.48
2023-04-18T16:51:46.707Z,99223.84
2023-04-18T16:56:49.216Z,99233.98
2023-04-18T17:01:51.629Z,99243.25
2023-04-18T17:06:53.789Z,99238.22
2023-04-18T17:11:55.724Z,99230.61
2023-04-18T17:16:57.866Z,99235.78
2023-04-18T17:22:00.389Z,99241.81
2023-04-18T17:27:02.536Z,99246.70
2023-04-18T17:32:05.210Z,99248.64
2023-04-18T17:37:07.481Z,99251.60
2023-04-18T17:42:09.709Z,99254.45
2023-04-18T17:47:11.935Z,99257.70
2023-04-18T17:52:14.024Z,99257.44
2023-04-18T17:57:16.723Z,99265.25
2023-04-18T18:02:19.409Z,99266.41
2023-04-18T18:07:21.533Z,99271.31
2023-04-18T18:12:23.428Z,99269.36
2023-04-18T18:17:25.526Z,99270.99
2023-04-18T18:22:28.270Z,99273.74
2023-04-18T18:27:30.263Z,99280.33
2023-04-18T18:32:32.472Z,99280.86
2023-04-18T18:37:34.554Z,99281.82
2023-04-18T18:42:36.746Z,99283.65
2023-04-18T18:47:40.011Z,99280.20
2023-04-18T18:52:43.250Z,99274.69
2023-04-18T18:57:45.539Z,99280.18
2023-04-18T19:02:47.789Z,99280.67
2023-04-18T19:07:51.490Z,99281.38
2023-04-18T19:12:53.468Z,99278.25
2023-04-18T19:17:59.118Z,99278.60
2023-04-18T19:23:01.032Z,99277.84
2023-04-18T19:28:06.972Z,99282.39
2023-04-18T19:33:09.685Z,99275.95
2023-04-18T19:38:11.880Z,99275.44
2023-04-18T19:43:13.872Z,99277.40
2023-04-18T19:48:16.245Z,99277.40
2023-04-18T19:53:19.223Z,99268.67
2023-04-18T19:58:45.113Z,99265.52
2023-04-18T20:03:48.805Z,99266.55
2023-04-18T20:08:51.315Z,99263.48
2023-04-18T20:13:56.769Z,99262.73
2023-04-18T20:18:58.857Z,99259.55
2023-04-18T20:24:01.535Z,99255.67
2023-04-18T20:29:04.024Z,99257.09
2023-04-18T20:34:06.993Z,99256.21
2023-04-18T20:39:09.490Z,99253.93
2023-04-18T20:44:13.851Z,99249.64
2023-04-18T20:49:16.557Z,99247.81
2023-04-18T20:54:18.849Z,99248.00
2023-04-18T20:59:21.490Z,99239.36
2023-04-18T21:04:23.934Z,99238.84
2023-04-18T21:09:26.688Z,99233.80
2023-04-18T21:14:36.058Z,99227.16
2023-04-18T21:19:38.213Z,99220.78
2023-04-18T21:24:40.667Z,99213.06
2023-04-18T21:29:42.921Z,99212.15
2023-04-18T21:34:44.986Z,99210.64
2023-04-18T21:39:47.237Z,99207.69
2023-04-18T21:44:49.637Z,99203.20
2023-04-18T21:49:56.679Z,99197.29
2023-04-18T21:54:59.962Z,99189.64
2023-04-18T22:00:02.440Z,99186.30
2023-04-18T22:05:13.389Z,99183.39
2023-04-18T22:10:16.556Z,99180.42
2023-04-18T22:15:18.359Z,99173.24
2023-04-18T22:20:21.554Z,99169.77
2023-04-18T22:25:23.341Z,99167.09
2023-04-18T22:30:25.575Z,99160.10
2023-04-18T22:35:27.945Z,99151.56
2023-04-18T22:40:29.991Z,99149.55
2023-04-18T22:45:33.794Z,99145.20
2023-04-18T22:50:37.913Z,99141.89
2023-04-18T22:55:44.352Z,99132.42
2023-04-18T23:00:46.824Z,99126.92
2023-04-18T23:05:48.869Z,99118.83
2023-04-18T23:10:53.206Z,99111.08
2023-04-18T23:16:01.403Z,99103.98
2023-04-18T23:21:03.700Z,99095.48
2023-04-18T23:26:13.301Z,99085.77
2023-04-18T23:31:15.625Z,99083.95
2023-04-18T23:36:17.758Z,99074.20
2023-04-18T23:41:20.422Z,99067.16
2023-04-18T23:46:22.884Z,99058.73
2023-04-18T23:51:27.777Z,99055.09
2023-04-18T23:56:29.803Z,99049.35
